createdAt,value
2023-04-08T00:00:13.129Z,2.40
2023-04-08T00:02:42.025Z,1.90
2023-04-08T00:05:10.672Z,2.30
2023-04-08T00:07:39.556Z,2.30
2023-04-08T00:10:18.512Z,2.40
2023-04-08T00:12:49.115Z,1.83
2023-04-08T00:15:17.344Z,2.50
2023-04-08T00:17:46.606Z,2.50
2023-04-08T00:20:21.049Z,3.10
2023-04-08T00:22:49.239Z,2.10
2023-04-08T00:25:25.352Z,2.57
2023-04-08T00:27:57.616Z,1.93
2023-04-08T00:30:27.484Z,2.57
2023-04-08T00:33:08.376Z,2.40
2023-04-08T00:35:36.797Z,2.10
2023-04-08T00:38:08.148Z,2.33
2023-04-08T00:40:37.770Z,2.60
2023-04-08T00:43:06.045Z,2.60
2023-04-08T00:45:35.121Z,2.17
2023-04-08T00:48:04.475Z,2.50
2023-04-08T00:50:32.850Z,2.30
2023-04-08T00:53:17.135Z,2.17
2023-04-08T00:55:47.061Z,2.20
2023-04-08T00:58:16.121Z,2.57
2023-04-08T01:03:48.898Z,2.40
2023-04-08T01:06:27.170Z,2.50
2023-04-08T01:08:55.554Z,2.10
2023-04-08T01:11:28.283Z,2.47
2023-04-08T01:13:57.633Z,2.17
2023-04-08T01:16:27.763Z,2.00
2023-04-08T01:18:56.580Z,2.50
2023-04-08T01:21:28.928Z,2.20
2023-04-08T01:24:11.154Z,2.13
2023-04-08T01:26:41.859Z,1.80
2023-04-08T01:29:12.496Z,2.30
2023-04-08T01:31:42.925Z,2.00
2023-04-08T01:34:12.954Z,1.83
2023-04-08T01:36:42.908Z,2.53
2023-04-08T01:39:12.261Z,1.60
2023-04-08T01:41:43.088Z,2.40
2023-04-08T01:44:15.019Z,1.97
2023-04-08T01:46:44.813Z,2.20
2023-04-08T01:49:13.355Z,2.40
2023-04-08T01:51:43.075Z,2.50
2023-04-08T01:54:11.346Z,1.80
2023-04-08T01:56:43.211Z,2.00
2023-04-08T01:59:25.245Z,1.77
2023-04-08T02:01:54.858Z,2.20
2023-04-08T02:04:23.179Z,2.37
2023-04-08T02:06:51.748Z,2.30
2023-04-08T02:09:37.153Z,1.93
2023-04-08T02:12:08.139Z,2.20
2023-04-08T02:14:36.423Z,1.80
2023-04-08T02:17:11.585Z,2.13
2023-04-08T02:19:45.931Z,2.37
2023-04-08T02:22:24.836Z,1.93
2023-04-08T02:25:00.650Z,2.30
2023-04-08T02:27:35.044Z,2.03
2023-04-08T02:30:05.969Z,2.10
2023-04-08T02:32:36.051Z,1.67
2023-04-08T02:35:06.109Z,2.37
2023-04-08T02:37:34.486Z,1.97
2023-04-08T02:40:02.582Z,2.23
2023-04-08T02:42:34.358Z,1.60
2023-04-08T02:45:02.963Z,1.80
2023-04-08T02:47:32.670Z,1.97
2023-04-08T02:50:00.775Z,1.90
2023-04-08T02:52:28.903Z,1.63
2023-04-08T02:54:57.262Z,2.50
2023-04-08T02:57:25.453Z,2.10
2023-04-08T02:59:55.079Z,2.10
2023-04-08T03:02:23.330Z,1.80
2023-04-08T03:04:57.570Z,2.23
2023-04-08T03:07:25.788Z,2.20
2023-04-08T03:09:55.282Z,2.10
2023-04-08T03:12:23.592Z,2.30
2023-04-08T03:14:54.851Z,2.40
2023-04-08T03:17:23.334Z,1.90
2023-04-08T03:19:51.854Z,2.57
2023-04-08T03:22:20.529Z,1.80
2023-04-08T03:24:51.881Z,2.20
2023-04-08T03:27:20.274Z,1.90
2023-04-08T03:29:48.852Z,2.03
2023-04-08T03:32:18.546Z,2.00
2023-04-08T03:34:55.305Z,2.30
2023-04-08T03:37:25.404Z,2.10
2023-04-08T03:39:56.025Z,2.13
2023-04-08T03:42:24.724Z,1.90
2023-04-08T03:44:52.879Z,2.00
2023-04-08T03:47:22.522Z,2.10
2023-04-08T03:49:51.131Z,1.80
2023-04-08T03:52:22.277Z,2.80
2023-04-08T03:54:50.459Z,1.90
2023-04-08T03:57:18.620Z,1.87
2023-04-08T03:59:46.668Z,1.70
2023-04-08T04:02:15.032Z,2.10
2023-04-08T04:04:44.816Z,2.30
2023-04-08T04:07:21.428Z,2.17
2023-04-08T04:09:49.491Z,2.00
2023-04-08T04:12:23.610Z,2.37
2023-04-08T04:14:51.820Z,1.80
2023-04-08T04:17:20.310Z,2.50
2023-04-08T04:19:49.838Z,1.77
2023-04-08T04:22:30.234Z,2.90
2023-04-08T04:24:58.362Z,1.90
2023-04-08T04:27:26.660Z,2.13
2023-04-08T04:29:54.912Z,2.00
2023-04-08T04:32:23.215Z,2.47
2023-04-08T04:34:52.849Z,2.03
2023-04-08T04:37:21.854Z,1.87
2023-04-08T04:39:50.092Z,2.07
2023-04-08T04:42:21.166Z,2.30
2023-04-08T04:44:49.377Z,1.80
2023-04-08T04:47:18.478Z,2.00
2023-04-08T04:49:46.923Z,2.10
2023-04-08T04:52:17.143Z,2.03
2023-04-08T04:54:45.564Z,1.97
2023-04-08T04:57:13.689Z,3.00
2023-04-08T04:59:42.238Z,1.70
2023-04-08T05:02:10.551Z,1.83
2023-04-08T05:04:38.794Z,1.90
2023-04-08T05:07:07.732Z,2.10
2023-04-08T05:09:37.309Z,2.20
2023-04-08T05:12:10.709Z,1.83
2023-04-08T05:14:38.912Z,1.90
2023-04-08T05:17:07.193Z,2.00
2023-04-08T05:19:35.515Z,1.87
2023-04-08T05:22:03.693Z,2.00
2023-04-08T05:24:31.898Z,1.90
2023-04-08T05:27:01.568Z,1.90
2023-04-08T05:29:29.808Z,1.90
2023-04-08T05:31:58.038Z,1.80
2023-04-08T05:34:26.216Z,2.20
2023-04-08T05:36:54.379Z,1.87
2023-04-08T05:39:22.629Z,1.90
2023-04-08T05:41:50.772Z,2.37
2023-04-08T05:44:20.547Z,2.10
2023-04-08T05:46:48.758Z,2.87
2023-04-08T05:49:17.573Z,1.90
2023-04-08T05:51:45.795Z,2.33
2023-04-08T05:54:14.474Z,2.40
2023-04-08T05:56:48.183Z,2.90
2023-04-08T05:59:16.845Z,2.13
2023-04-08T06:01:49.661Z,2.53
2023-04-08T06:04:24.005Z,1.80
2023-04-08T06:06:52.236Z,2.50
2023-04-08T06:09:20.629Z,2.17
2023-04-08T06:11:50.958Z,2.27
2023-04-08T06:14:21.639Z,2.00
2023-04-08T06:16:51.257Z,2.70
2023-04-08T06:19:19.494Z,2.30
2023-04-08T06:21:47.813Z,2.17
2023-04-08T06:24:16.231Z,2.13
2023-04-08T06:26:44.458Z,2.70
2023-04-08T06:29:13.902Z,2.00
2023-04-08T06:31:42.333Z,2.10
2023-04-08T06:34:11.988Z,2.57
2023-04-08T06:36:43.201Z,2.50
2023-04-08T06:39:12.056Z,2.10
2023-04-08T06:41:40.148Z,2.03
2023-04-08T06:44:08.314Z,2.10
2023-04-08T06:46:44.479Z,2.50
2023-04-08T06:49:14.464Z,2.33
2023-04-08T06:51:42.638Z,2.03
2023-04-08T06:54:11.532Z,1.77
2023-04-08T06:56:41.197Z,2.83
2023-04-08T06:59:09.374Z,1.93
2023-04-08T07:01:37.829Z,2.00
2023-04-08T07:04:06.285Z,1.97
2023-04-08T07:06:46.235Z,2.03
2023-04-08T07:09:14.485Z,2.00
2023-04-08T07:11:43.309Z,2.80
2023-04-08T07:14:11.576Z,1.90
2023-04-08T07:16:42.812Z,1.90
2023-04-08T07:19:11.065Z,1.93
2023-04-08T07:21:40.698Z,2.27
2023-04-08T07:24:08.906Z,1.90
2023-04-08T07:26:37.397Z,1.90
2023-04-08T07:29:05.939Z,2.30
2023-04-08T07:31:34.400Z,2.17
2023-04-08T07:34:02.567Z,2.30
2023-04-08T07:36:31.080Z,2.40
2023-04-08T07:39:00.753Z,2.10
2023-04-08T07:41:28.961Z,1.90
2023-04-08T07:43:57.211Z,2.03
2023-04-08T07:46:27.055Z,2.10
2023-04-08T07:48:55.443Z,2.03
2023-04-08T07:51:23.507Z,2.07
2023-04-08T07:53:51.677Z,2.20
2023-04-08T07:56:22.566Z,2.10
2023-04-08T07:58:52.910Z,2.23
2023-04-08T08:01:39.530Z,2.20
2023-04-08T08:04:07.813Z,2.30
2023-04-08T08:06:36.246Z,2.20
2023-04-08T08:09:04.525Z,2.17
2023-04-08T08:11:34.213Z,2.17
2023-04-08T08:14:03.224Z,2.00
2023-04-08T08:16:46.797Z,2.20
2023-04-08T08:19:15.051Z,1.87
2023-04-08T08:21:43.345Z,2.40
2023-04-08T08:24:13.436Z,2.00
2023-04-08T08:26:47.288Z,2.10
2023-04-08T08:29:15.400Z,2.00
2023-04-08T08:31:48.655Z,2.43
2023-04-08T08:34:16.916Z,1.87
2023-04-08T08:36:45.075Z,2.17
2023-04-08T08:39:13.300Z,1.90
2023-04-08T08:41:42.986Z,2.27
2023-04-08T08:44:11.684Z,2.37
2023-04-08T08:46:45.691Z,1.97
2023-04-08T08:49:14.341Z,2.00
2023-04-08T08:51:43.226Z,2.10
2023-04-08T08:54:11.502Z,2.10
2023-04-08T08:56:43.390Z,1.97
2023-04-08T08:59:13.162Z,2.00
2023-04-08T09:01:42.126Z,2.20
2023-04-08T09:04:17.385Z,1.97
2023-04-08T09:06:48.959Z,2.40
2023-04-08T09:09:17.335Z,2.00
2023-04-08T09:11:46.576Z,1.90
2023-04-08T09:14:24.359Z,1.60
2023-04-08T09:16:55.031Z,1.43
2023-04-08T09:19:23.274Z,1.60
2023-04-08T09:22:07.684Z,1.70
2023-04-08T09:24:37.405Z,1.60
2023-04-08T09:27:06.358Z,1.60
2023-04-08T09:29:43.868Z,1.50
2023-04-08T09:32:12.162Z,1.40
2023-04-08T09:34:46.123Z,1.93
2023-04-08T09:37:14.251Z,1.63
2023-04-08T09:39:42.382Z,1.53
2023-04-08T09:42:13.543Z,1.57
2023-04-08T09:44:47.283Z,1.40
2023-04-08T09:47:26.115Z,1.50
2023-04-08T09:49:59.490Z,1.90
2023-04-08T09:52:35.562Z,1.50
2023-04-08T09:55:05.840Z,1.20
2023-04-08T09:57:44.168Z,1.60
2023-04-08T10:00:16.217Z,1.47
2023-04-08T10:02:56.670Z,1.80
2023-04-08T10:05:42.121Z,1.60
2023-04-08T10:08:11.254Z,1.60
2023-04-08T10:10:41.960Z,1.70
2023-04-08T10:13:11.342Z,1.43
2023-04-08T10:15:43.399Z,1.63
2023-04-08T10:18:38.229Z,1.10
2023-04-08T10:21:06.648Z,1.50
2023-04-08T10:23:59.292Z,1.40
2023-04-08T10:26:37.606Z,1.40
2023-04-08T10:29:36.845Z,1.40
2023-04-08T10:32:06.581Z,1.30
2023-04-08T10:34:34.793Z,1.20
2023-04-08T10:37:06.589Z,1.30
2023-04-08T10:39:36.856Z,1.40
2023-04-08T10:42:09.954Z,1.50
2023-04-08T10:44:38.725Z,1.50
2023-04-08T10:47:08.367Z,1.20
2023-04-08T10:49:39.102Z,1.27
2023-04-08T10:52:09.359Z,1.40
2023-04-08T10:54:38.572Z,1.50
2023-04-08T10:57:07.771Z,1.73
2023-04-08T10:59:37.124Z,1.67
2023-04-08T11:02:05.319Z,1.40
2023-04-08T11:04:35.190Z,1.40
2023-04-08T11:07:09.542Z,1.90
2023-04-08T11:09:41.239Z,1.83
2023-04-08T11:12:09.672Z,1.40
2023-04-08T11:14:39.640Z,1.70
2023-04-08T11:17:08.735Z,3.90
2023-04-08T11:19:39.388Z,1.57
2023-04-08T11:22:09.597Z,2.10
2023-04-08T11:24:38.127Z,2.13
2023-04-08T11:27:09.218Z,1.97
2023-04-08T11:29:38.678Z,1.77
2023-04-08T11:32:07.110Z,1.43
2023-04-08T11:34:35.218Z,1.20
2023-04-08T11:37:10.154Z,1.77
2023-04-08T11:39:43.977Z,1.73
2023-04-08T11:42:28.158Z,1.70
2023-04-08T11:44:56.564Z,1.70
2023-04-08T11:47:32.638Z,1.30
2023-04-08T11:50:01.748Z,1.10
2023-04-08T11:52:48.584Z,1.20
2023-04-08T11:55:25.103Z,1.40
2023-04-08T11:57:53.706Z,1.90
2023-04-08T12:00:22.692Z,1.63
2023-04-08T12:02:51.367Z,3.10
2023-04-08T12:05:19.842Z,1.70
2023-04-08T12:08:10.769Z,1.27
2023-04-08T12:10:39.320Z,1.43
2023-04-08T12:13:15.056Z,1.43
2023-04-08T12:15:43.445Z,1.20
2023-04-08T12:18:11.697Z,1.20
2023-04-08T12:20:39.872Z,1.10
2023-04-08T12:23:09.582Z,1.40
2023-04-08T12:25:38.102Z,1.20
2023-04-08T12:28:13.877Z,1.73
2023-04-08T12:30:42.257Z,0.97
2023-04-08T12:33:10.419Z,1.07
2023-04-08T12:35:39.121Z,1.20
2023-04-08T12:38:07.956Z,1.07
2023-04-08T12:40:37.605Z,1.30
2023-04-08T12:43:13.387Z,1.60
2023-04-08T12:45:49.996Z,1.27
2023-04-08T12:48:18.281Z,1.10
2023-04-08T12:50:49.778Z,1.30
2023-04-08T12:53:20.162Z,1.30
2023-04-08T12:56:12.015Z,0.97
2023-04-08T12:58:40.856Z,1.10
2023-04-08T13:01:10.608Z,1.07
2023-04-08T13:03:43.332Z,1.13
2023-04-08T13:06:14.163Z,1.20
2023-04-08T13:08:44.074Z,1.20
2023-04-08T13:11:14.100Z,1.80
2023-04-08T13:13:42.577Z,0.90
2023-04-08T13:16:20.688Z,1.30
2023-04-08T13:18:49.261Z,1.00
2023-04-08T13:21:17.628Z,1.10
2023-04-08T13:23:47.065Z,1.10
2023-04-08T13:26:18.353Z,1.10
2023-04-08T13:31:39.571Z,0.90
2023-04-08T13:34:07.778Z,1.10
2023-04-08T13:36:36.967Z,0.97
2023-04-08T13:39:05.341Z,1.13
2023-04-08T13:41:35.380Z,1.20
2023-04-08T13:44:10.578Z,1.27
2023-04-08T13:46:39.697Z,1.00
2023-04-08T13:49:08.098Z,1.17
2023-04-08T13:51:36.285Z,1.10
2023-04-08T13:54:04.919Z,1.10
2023-04-08T13:56:34.607Z,1.10
2023-04-08T13:59:02.967Z,1.20
2023-04-08T14:01:38.516Z,1.60
2023-04-08T14:04:06.745Z,1.33
2023-04-08T14:06:36.191Z,1.37
2023-04-08T14:09:04.692Z,1.30
2023-04-08T14:11:34.561Z,1.10
2023-04-08T14:14:06.558Z,1.50
2023-04-08T14:16:36.489Z,1.40
2023-04-08T14:19:05.148Z,1.10
2023-04-08T14:21:34.304Z,1.00
2023-04-08T14:24:03.922Z,1.27
2023-04-08T14:26:36.831Z,1.30
2023-04-08T14:29:07.829Z,1.00
2023-04-08T14:31:39.081Z,1.77
2023-04-08T14:34:10.032Z,1.07
2023-04-08T14:36:38.590Z,1.17
2023-04-08T14:39:06.988Z,1.30
2023-04-08T14:41:35.754Z,1.87
2023-04-08T14:44:04.456Z,1.20
2023-04-08T14:46:37.688Z,1.87
2023-04-08T14:49:07.211Z,1.30
2023-04-08T14:51:38.117Z,1.67
2023-04-08T14:54:07.393Z,1.20
2023-04-08T14:56:36.339Z,1.20
2023-04-08T14:59:04.617Z,1.30
2023-04-08T15:01:33.771Z,1.63
2023-04-08T15:04:03.594Z,1.70
2023-04-08T15:06:32.489Z,1.90
2023-04-08T15:09:01.300Z,1.10
2023-04-08T15:11:34.651Z,1.80
2023-04-08T15:14:03.909Z,1.23
2023-04-08T15:16:40.891Z,1.97
2023-04-08T15:19:12.104Z,1.00
2023-04-08T15:21:45.933Z,1.53
2023-04-08T15:24:15.057Z,0.90
2023-04-08T15:26:43.254Z,1.23
2023-04-08T15:29:16.375Z,1.10
2023-04-08T15:31:44.913Z,1.60
2023-04-08T15:34:43.765Z,1.10
2023-04-08T15:37:12.052Z,1.00
2023-04-08T15:39:41.783Z,1.20
2023-04-08T15:42:10.773Z,1.20
2023-04-08T15:44:38.929Z,1.30
2023-04-08T15:47:08.271Z,1.20
2023-04-08T15:49:40.377Z,1.63
2023-04-08T15:52:08.681Z,1.23
2023-04-08T15:54:36.830Z,1.30
2023-04-08T15:57:05.129Z,1.10
2023-04-08T15:59:33.677Z,1.10
2023-04-08T16:02:02.231Z,1.30
2023-04-08T16:04:30.916Z,1.80
2023-04-08T16:07:00.672Z,1.20
2023-04-08T16:09:31.347Z,1.50
2023-04-08T16:12:00.056Z,1.00
2023-04-08T16:14:28.411Z,1.33
2023-04-08T16:16:57.713Z,0.97
2023-04-08T16:19:27.434Z,1.17
2023-04-08T16:22:21.279Z,1.20
2023-04-08T16:24:49.529Z,1.30
2023-04-08T16:27:17.954Z,2.60
2023-04-08T16:29:46.848Z,1.30
2023-04-08T16:32:15.400Z,1.27
2023-04-08T16:34:45.186Z,1.87
2023-04-08T16:37:15.171Z,1.57
2023-04-08T16:39:43.544Z,1.10
2023-04-08T16:42:11.826Z,0.93
2023-04-08T16:44:40.059Z,1.00
2023-04-08T16:47:08.164Z,1.33
2023-04-08T16:49:36.497Z,1.03
2023-04-08T16:52:04.804Z,1.50
2023-04-08T16:54:36.687Z,1.00
2023-04-08T16:57:05.127Z,1.00
2023-04-08T16:59:34.074Z,1.10
2023-04-08T17:02:05.542Z,1.10
2023-04-08T17:04:34.093Z,0.80
2023-04-08T17:07:02.611Z,1.33
2023-04-08T17:09:31.188Z,0.90
2023-04-08T17:12:01.404Z,0.90
2023-04-08T17:14:29.976Z,0.80
2023-04-08T17:16:58.312Z,1.30
2023-04-08T17:19:26.474Z,0.97
2023-04-08T17:21:54.964Z,1.20
2023-04-08T17:24:23.098Z,1.10
2023-04-08T17:26:51.276Z,1.37
2023-04-08T17:29:20.952Z,1.13
2023-04-08T17:31:49.049Z,1.50
2023-04-08T17:34:19.461Z,1.10
2023-04-08T17:36:47.683Z,1.07
2023-04-08T17:39:16.439Z,1.00
2023-04-08T17:41:45.918Z,1.00
2023-04-08T17:44:14.446Z,1.00
2023-04-08T17:46:44.047Z,1.03
2023-04-08T17:49:15.014Z,1.30
2023-04-08T17:51:43.171Z,1.20
2023-04-08T17:54:11.830Z,1.13
2023-04-08T17:56:44.706Z,1.13
2023-04-08T17:59:14.024Z,1.20
2023-04-08T18:01:43.781Z,1.13
2023-04-08T18:04:12.729Z,1.07
2023-04-08T18:06:41.226Z,1.20
2023-04-08T18:09:09.392Z,1.20
2023-04-08T18:11:37.526Z,1.20
2023-04-08T18:14:07.600Z,1.20
2023-04-08T18:16:35.917Z,1.40
2023-04-08T18:19:05.538Z,1.43
2023-04-08T18:21:33.967Z,1.40
2023-04-08T18:24:02.265Z,2.33
2023-04-08T18:26:31.419Z,1.50
2023-04-08T18:28:59.679Z,1.60
2023-04-08T18:31:27.978Z,2.20
2023-04-08T18:33:56.100Z,3.00
2023-04-08T18:36:26.694Z,2.00
2023-04-08T18:38:57.968Z,2.60
2023-04-08T18:41:26.437Z,2.00
2023-04-08T18:43:55.010Z,2.00
2023-04-08T18:46:24.490Z,1.47
2023-04-08T18:48:52.628Z,1.70
2023-04-08T18:51:20.923Z,1.80
2023-04-08T18:53:58.032Z,1.90
2023-04-08T18:56:26.254Z,1.10
2023-04-08T18:58:54.789Z,1.70
2023-04-08T19:01:23.169Z,1.30
2023-04-08T19:03:52.145Z,2.27
2023-04-08T19:06:22.863Z,1.20
2023-04-08T19:08:57.420Z,2.37
2023-04-08T19:11:29.017Z,1.50
2023-04-08T19:13:57.380Z,2.20
2023-04-08T19:16:25.604Z,1.40
2023-04-08T19:18:54.922Z,1.97
2023-04-08T19:21:23.341Z,1.40
2023-04-08T19:23:52.101Z,2.13
2023-04-08T19:26:21.940Z,1.40
2023-04-08T19:28:50.170Z,1.70
2023-04-08T19:31:18.808Z,1.37
2023-04-08T19:33:47.282Z,1.60
2023-04-08T19:36:15.606Z,1.40
2023-04-08T19:38:45.005Z,1.60
2023-04-08T19:41:13.176Z,2.00
2023-04-08T19:43:46.966Z,1.50
2023-04-08T19:46:15.155Z,1.50
2023-04-08T19:48:43.296Z,1.63
2023-04-08T19:51:20.395Z,1.67
2023-04-08T19:53:50.022Z,2.00
2023-04-08T19:56:18.435Z,1.20
2023-04-08T19:58:48.518Z,1.30
2023-04-08T20:01:16.974Z,1.50
2023-04-08T20:03:50.738Z,1.70
2023-04-08T20:06:19.469Z,1.90
2023-04-08T20:08:50.198Z,1.90
2023-04-08T20:11:19.582Z,1.73
2023-04-08T20:13:53.322Z,1.53
2023-04-08T20:16:21.484Z,1.70
2023-04-08T20:18:50.042Z,1.50
2023-04-08T20:21:18.472Z,1.40
2023-04-08T20:23:51.315Z,1.87
2023-04-08T20:26:19.957Z,1.60
2023-04-08T20:28:49.797Z,1.60
2023-04-08T20:31:19.330Z,1.83
2023-04-08T20:33:48.051Z,1.30
2023-04-08T20:36:16.308Z,2.07
2023-04-08T20:38:44.883Z,1.73
2023-04-08T20:41:13.248Z,1.73
2023-04-08T20:43:41.904Z,1.57
2023-04-08T20:46:11.487Z,1.60
2023-04-08T20:48:40.131Z,1.43
2023-04-08T20:51:08.313Z,1.20
2023-04-08T20:53:36.922Z,1.43
2023-04-08T20:56:07.914Z,1.60
2023-04-08T20:58:36.160Z,1.80
2023-04-08T21:01:04.315Z,2.60
2023-04-08T21:03:34.251Z,1.50
2023-04-08T21:06:02.452Z,1.50
2023-04-08T21:08:30.499Z,1.97
2023-04-08T21:10:58.616Z,1.80
2023-04-08T21:13:28.567Z,1.20
2023-04-08T21:15:56.837Z,1.80
2023-04-08T21:18:25.368Z,1.43
2023-04-08T21:20:54.950Z,1.50
2023-04-08T21:23:23.021Z,1.50
2023-04-08T21:25:51.304Z,1.50
2023-04-08T21:28:19.602Z,1.40
2023-04-08T21:30:47.814Z,1.50
2023-04-08T21:33:16.699Z,1.53
2023-04-08T21:35:45.030Z,1.53
2023-04-08T21:38:15.740Z,1.50
2023-04-08T21:40:44.508Z,1.70
2023-04-08T21:43:12.938Z,1.93
2023-04-08T21:45:42.074Z,1.70
2023-04-08T21:48:10.300Z,1.90
2023-04-08T21:50:38.851Z,1.57
2023-04-08T21:53:06.962Z,1.70
2023-04-08T21:55:36.573Z,1.40
2023-04-08T21:58:04.697Z,2.17
2023-04-08T22:00:32.824Z,1.47
2023-04-08T22:03:02.041Z,2.20
2023-04-08T22:05:32.501Z,1.70
2023-04-08T22:08:01.342Z,2.17
2023-04-08T22:10:29.449Z,1.80
2023-04-08T22:12:59.130Z,2.27
2023-04-08T22:15:27.294Z,1.40
2023-04-08T22:17:56.131Z,1.70
2023-04-08T22:20:24.443Z,1.70
2023-04-08T22:22:53.104Z,1.70
2023-04-08T22:25:21.268Z,1.47
2023-04-08T22:27:49.374Z,1.80
2023-04-08T22:30:21.492Z,1.60
2023-04-08T22:32:52.001Z,2.10
2023-04-08T22:35:20.270Z,1.80
2023-04-08T22:37:48.623Z,1.80
2023-04-08T22:40:16.890Z,1.83
2023-04-08T22:42:44.978Z,2.00
2023-04-08T22:45:13.252Z,2.30
2023-04-08T22:47:43.000Z,2.30
2023-04-08T22:50:11.950Z,2.00
2023-04-08T22:52:40.347Z,2.40
2023-04-08T22:55:09.544Z,2.40
2023-04-08T22:57:37.696Z,2.10
2023-04-08T23:00:08.679Z,2.00
2023-04-08T23:02:39.010Z,2.17
2023-04-08T23:05:09.854Z,2.13
2023-04-08T23:07:38.024Z,2.10
2023-04-08T23:10:07.200Z,2.37
2023-04-08T23:12:36.396Z,2.00
2023-04-08T23:15:05.027Z,2.90
2023-04-08T23:17:40.778Z,2.10
2023-04-08T23:20:11.158Z,2.77
2023-04-08T23:22:39.360Z,2.73
2023-04-08T23:25:08.905Z,2.23
2023-04-08T23:27:39.069Z,2.90
2023-04-08T23:30:08.452Z,2.73
2023-04-08T23:32:37.304Z,2.37
2023-04-08T23:35:05.771Z,2.23
2023-04-08T23:37:35.285Z,2.33
2023-04-08T23:40:03.448Z,2.07
2023-04-08T23:42:31.574Z,2.13
2023-04-08T23:44:59.773Z,2.30
2023-04-08T23:47:29.078Z,2.07
2023-04-08T23:50:00.237Z,2.37
2023-04-08T23:52:28.351Z,1.90
2023-04-08T23:54:58.100Z,1.80
2023-04-08T23:57:26.459Z,2.03
2023-04-08T23:59:54.706Z,1.63
